sensor_id;sensor_type;location;lat;lon;timestamp;temperature;humidity
59148;DHT22;44930;52.878;6.168;2023-03-14T00:01:50;10.30;99.90
59148;DHT22;44930;52.878;6.168;2023-03-14T00:04:16;10.10;99.90
59148;DHT22;44930;52.878;6.168;2023-03-14T00:06:41;10.10;99.90
59148;DHT22;44930;52.878;6.168;2023-03-14T00:09:07;10.20;99.90
59148;DHT22;44930;52.878;6.168;2023-03-14T00:11:33;10.10;99.90
59148;DHT22;44930;52.878;6.168;2023-03-14T00:13:59;10.30;99.90
59148;DHT22;44930;52.878;6.168;2023-03-14T00:16:25;10.30;99.90
59148;DHT22;44930;52.878;6.168;2023-03-14T00:18:51;10.40;99.90
59148;DHT22;44930;52.878;6.168;2023-03-14T00:21:17;10.50;99.90
59148;DHT22;44930;52.878;6.168;2023-03-14T00:23:43;10.30;99.90
59148;DHT22;44930;52.878;6.168;2023-03-14T00:26:14;10.50;99.90
59148;DHT22;44930;52.878;6.168;2023-03-14T00:28:40;10.60;99.90
59148;DHT22;44930;52.878;6.168;2023-03-14T00:33:33;10.60;99.90
59148;DHT22;44930;52.878;6.168;2023-03-14T00:36:01;10.50;99.90
59148;DHT22;44930;52.878;6.168;2023-03-14T00:38:30;10.80;99.90
59148;DHT22;44930;52.878;6.168;2023-03-14T00:40:56;10.50;99.90
59148;DHT22;44930;52.878;6.168;2023-03-14T00:43:21;10.60;99.90
59148;DHT22;44930;52.878;6.168;2023-03-14T00:45:48;10.70;99.90
59148;DHT22;44930;52.878;6.168;2023-03-14T00:48:14;10.60;99.90
59148;DHT22;44930;52.878;6.168;2023-03-14T00:50:40;10.60;99.90
59148;DHT22;44930;52.878;6.168;2023-03-14T00:53:05;10.80;99.90
59148;DHT22;44930;52.878;6.168;2023-03-14T00:55:31;10.70;99.90
59148;DHT22;44930;52.878;6.168;2023-03-14T00:57:56;10.60;99.90
59148;DHT22;44930;52.878;6.168;2023-03-14T01:00:22;10.60;99.90
59148;DHT22;44930;52.878;6.168;2023-03-14T01:02:48;10.60;99.90
59148;DHT22;44930;52.878;6.168;2023-03-14T01:05:14;10.60;99.90
59148;DHT22;44930;52.878;6.168;2023-03-14T01:07:40;10.60;99.90
59148;DHT22;44930;52.878;6.168;2023-03-14T01:10:06;10.30;99.90
59148;DHT22;44930;52.878;6.168;2023-03-14T01:12:32;10.70;99.90
59148;DHT22;44930;52.878;6.168;2023-03-14T01:14:57;10.80;99.90
59148;DHT22;44930;52.878;6.168;2023-03-14T01:17:23;10.70;99.90
59148;DHT22;44930;52.878;6.168;2023-03-14T01:19:48;10.80;99.90
59148;DHT22;44930;52.878;6.168;2023-03-14T01:22:14;10.80;99.90
59148;DHT22;44930;52.878;6.168;2023-03-14T01:24:40;10.80;99.90
59148;DHT22;44930;52.878;6.168;2023-03-14T01:27:05;10.70;99.90
59148;DHT22;44930;52.878;6.168;2023-03-14T01:29:31;10.50;99.90
59148;DHT22;44930;52.878;6.168;2023-03-14T01:31:57;10.60;99.90
59148;DHT22;44930;52.878;6.168;2023-03-14T01:34:22;10.60;99.90
59148;DHT22;44930;52.878;6.168;2023-03-14T01:36:48;10.70;99.90
59148;DHT22;44930;52.878;6.168;2023-03-14T01:39:14;10.40;99.90
59148;DHT22;44930;52.878;6.168;2023-03-14T01:41:40;10.40;99.90
59148;DHT22;44930;52.878;6.168;2023-03-14T01:44:10;10.40;99.90
59148;DHT22;44930;52.878;6.168;2023-03-14T01:46:44;10.40;99.90
59148;DHT22;44930;52.878;6.168;2023-03-14T01:49:26;10.30;99.90
59148;DHT22;44930;52.878;6.168;2023-03-14T01:51:58;10.30;99.90
59148;DHT22;44930;52.878;6.168;2023-03-14T01:54:39;10.30;99.90
59148;DHT22;44930;52.878;6.168;2023-03-14T01:57:16;10.20;99.90
59148;DHT22;44930;52.878;6.168;2023-03-14T01:59:52;10.10;99.90
59148;DHT22;44930;52.878;6.168;2023-03-14T02:02:19;10.50;99.90
59148;DHT22;44930;52.878;6.168;2023-03-14T02:04:45;10.50;99.90
59148;DHT22;44930;52.878;6.168;2023-03-14T02:09:54;10.60;99.90
59148;DHT22;44930;52.878;6.168;2023-03-14T02:12:21;10.30;99.90
59148;DHT22;44930;52.878;6.168;2023-03-14T02:14:47;10.50;99.90
59148;DHT22;44930;52.878;6.168;2023-03-14T02:17:15;10.40;99.90
59148;DHT22;44930;52.878;6.168;2023-03-14T02:22:19;10.40;99.90
59148;DHT22;44930;52.878;6.168;2023-03-14T02:27:18;10.40;99.90
59148;DHT22;44930;52.878;6.168;2023-03-14T02:29:55;10.40;99.90
59148;DHT22;44930;52.878;6.168;2023-03-14T02:32:24;10.50;99.90
59148;DHT22;44930;52.878;6.168;2023-03-14T02:34:54;10.50;99.90
59148;DHT22;44930;52.878;6.168;2023-03-14T02:37:23;10.30;99.90
59148;DHT22;44930;52.878;6.168;2023-03-14T02:39:50;10.20;99.90
59148;DHT22;44930;52.878;6.168;2023-03-14T02:42:16;10.10;99.90
59148;DHT22;44930;52.878;6.168;2023-03-14T02:44:54;10.30;99.90
59148;DHT22;44930;52.878;6.168;2023-03-14T02:47:25;9.90;99.90
59148;DHT22;44930;52.878;6.168;2023-03-14T02:49:55;9.80;99.90
59148;DHT22;44930;52.878;6.168;2023-03-14T02:52:22;9.80;99.90
59148;DHT22;44930;52.878;6.168;2023-03-14T02:54:48;9.70;99.90
59148;DHT22;44930;52.878;6.168;2023-03-14T02:57:13;9.70;99.90
59148;DHT22;44930;52.878;6.168;2023-03-14T02:59:39;9.70;99.90
59148;DHT22;44930;52.878;6.168;2023-03-14T03:02:04;9.90;99.90
59148;DHT22;44930;52.878;6.168;2023-03-14T03:04:30;9.80;99.90
59148;DHT22;44930;52.878;6.168;2023-03-14T03:06:55;9.80;99.90
59148;DHT22;44930;52.878;6.168;2023-03-14T03:11:47;9.70;99.90
59148;DHT22;44930;52.878;6.168;2023-03-14T03:14:12;9.70;99.90
59148;DHT22;44930;52.878;6.168;2023-03-14T03:16:38;9.70;99.90
59148;DHT22;44930;52.878;6.168;2023-03-14T03:19:04;9.50;99.90
59148;DHT22;44930;52.878;6.168;2023-03-14T03:21:29;9.50;99.90
59148;DHT22;44930;52.878;6.168;2023-03-14T03:23:55;9.50;99.90
59148;DHT22;44930;52.878;6.168;2023-03-14T03:26:20;9.40;99.90
59148;DHT22;44930;52.878;6.168;2023-03-14T03:28:46;9.50;99.90
59148;DHT22;44930;52.878;6.168;2023-03-14T03:31:12;9.40;99.90
59148;DHT22;44930;52.878;6.168;2023-03-14T03:33:37;9.30;99.90
59148;DHT22;44930;52.878;6.168;2023-03-14T03:36:03;9.50;99.90
59148;DHT22;44930;52.878;6.168;2023-03-14T03:38:29;9.30;99.90
59148;DHT22;44930;52.878;6.168;2023-03-14T03:40:54;9.30;99.90
59148;DHT22;44930;52.878;6.168;2023-03-14T03:45:46;9.20;99.90
59148;DHT22;44930;52.878;6.168;2023-03-14T03:48:11;9.20;99.90
59148;DHT22;44930;52.878;6.168;2023-03-14T03:50:38;9.20;99.90
59148;DHT22;44930;52.878;6.168;2023-03-14T03:53:08;9.10;99.90
59148;DHT22;44930;52.878;6.168;2023-03-14T03:55:34;9.00;99.90
59148;DHT22;44930;52.878;6.168;2023-03-14T03:57:59;9.00;99.90
59148;DHT22;44930;52.878;6.168;2023-03-14T04:00:25;9.10;99.90
59148;DHT22;44930;52.878;6.168;2023-03-14T04:02:50;9.20;99.90
59148;DHT22;44930;52.878;6.168;2023-03-14T04:05:16;9.00;99.90
59148;DHT22;44930;52.878;6.168;2023-03-14T04:07:42;9.00;99.90
59148;DHT22;44930;52.878;6.168;2023-03-14T04:10:08;9.00;99.90
59148;DHT22;44930;52.878;6.168;2023-03-14T04:12:33;9.00;99.90
59148;DHT22;44930;52.878;6.168;2023-03-14T04:14:59;9.10;99.90
59148;DHT22;44930;52.878;6.168;2023-03-14T04:17:24;9.20;99.90
59148;DHT22;44930;52.878;6.168;2023-03-14T04:19:50;9.10;99.90
59148;DHT22;44930;52.878;6.168;2023-03-14T04:22:18;8.90;99.90
59148;DHT22;44930;52.878;6.168;2023-03-14T04:24:44;9.00;99.90
59148;DHT22;44930;52.878;6.168;2023-03-14T04:27:09;9.00;99.90
59148;DHT22;44930;52.878;6.168;2023-03-14T04:29:35;9.00;99.90
59148;DHT22;44930;52.878;6.168;2023-03-14T04:32:00;9.00;99.90
59148;DHT22;44930;52.878;6.168;2023-03-14T04:34:26;9.00;99.90
59148;DHT22;44930;52.878;6.168;2023-03-14T04:36:51;9.00;99.90
59148;DHT22;44930;52.878;6.168;2023-03-14T04:41:44;8.90;99.90
59148;DHT22;44930;52.878;6.168;2023-03-14T04:44:09;8.90;99.90
59148;DHT22;44930;52.878;6.168;2023-03-14T04:46:35;9.00;99.90
59148;DHT22;44930;52.878;6.168;2023-03-14T04:49:00;9.00;99.90
59148;DHT22;44930;52.878;6.168;2023-03-14T04:51:26;9.00;99.90
59148;DHT22;44930;52.878;6.168;2023-03-14T04:53:53;9.00;99.90
59148;DHT22;44930;52.878;6.168;2023-03-14T04:56:18;8.90;99.90
59148;DHT22;44930;52.878;6.168;2023-03-14T04:58:44;8.90;99.90
59148;DHT22;44930;52.878;6.168;2023-03-14T05:01:10;8.90;99.90
59148;DHT22;44930;52.878;6.168;2023-03-14T05:03:35;9.00;99.90
59148;DHT22;44930;52.878;6.168;2023-03-14T05:06:02;9.10;99.90
59148;DHT22;44930;52.878;6.168;2023-03-14T05:08:28;9.00;99.90
59148;DHT22;44930;52.878;6.168;2023-03-14T05:10:57;9.10;99.90
59148;DHT22;44930;52.878;6.168;2023-03-14T05:13:23;9.00;99.90
59148;DHT22;44930;52.878;6.168;2023-03-14T05:15:49;9.00;99.90
59148;DHT22;44930;52.878;6.168;2023-03-14T05:18:16;9.10;99.90
59148;DHT22;44930;52.878;6.168;2023-03-14T05:20:42;9.10;99.90
59148;DHT22;44930;52.878;6.168;2023-03-14T05:23:09;9.00;99.90
59148;DHT22;44930;52.878;6.168;2023-03-14T05:25:34;9.10;99.90
59148;DHT22;44930;52.878;6.168;2023-03-14T05:28:00;9.00;99.90
59148;DHT22;44930;52.878;6.168;2023-03-14T05:32:53;9.10;99.90
59148;DHT22;44930;52.878;6.168;2023-03-14T05:35:19;9.10;99.90
59148;DHT22;44930;52.878;6.168;2023-03-14T05:37:45;8.90;99.90
59148;DHT22;44930;52.878;6.168;2023-03-14T05:40:10;9.00;99.90
59148;DHT22;44930;52.878;6.168;2023-03-14T05:42:36;8.90;99.90
59148;DHT22;44930;52.878;6.168;2023-03-14T05:45:02;8.90;99.90
59148;DHT22;44930;52.878;6.168;2023-03-14T05:47:27;8.90;99.90
59148;DHT22;44930;52.878;6.168;2023-03-14T05:49:53;8.90;99.90
59148;DHT22;44930;52.878;6.168;2023-03-14T05:52:19;8.80;99.90
59148;DHT22;44930;52.878;6.168;2023-03-14T05:54:44;9.00;99.90
59148;DHT22;44930;52.878;6.168;2023-03-14T05:59:36;8.90;99.90
59148;DHT22;44930;52.878;6.168;2023-03-14T06:02:02;8.80;99.90
59148;DHT22;44930;52.878;6.168;2023-03-14T06:04:27;9.00;99.90
59148;DHT22;44930;52.878;6.168;2023-03-14T06:06:53;8.90;99.90
59148;DHT22;44930;52.878;6.168;2023-03-14T06:09:18;8.90;99.90
59148;DHT22;44930;52.878;6.168;2023-03-14T06:11:45;8.90;99.90
59148;DHT22;44930;52.878;6.168;2023-03-14T06:14:12;8.90;99.90
59148;DHT22;44930;52.878;6.168;2023-03-14T06:16:37;8.90;99.90
59148;DHT22;44930;52.878;6.168;2023-03-14T06:19:03;8.80;99.90
59148;DHT22;44930;52.878;6.168;2023-03-14T06:21:28;8.90;99.90
59148;DHT22;44930;52.878;6.168;2023-03-14T06:23:54;9.00;99.90
59148;DHT22;44930;52.878;6.168;2023-03-14T06:26:20;9.00;99.90
59148;DHT22;44930;52.878;6.168;2023-03-14T06:28:45;9.10;99.90
59148;DHT22;44930;52.878;6.168;2023-03-14T06:31:11;9.20;99.90
59148;DHT22;44930;52.878;6.168;2023-03-14T06:33:37;9.40;99.90
59148;DHT22;44930;52.878;6.168;2023-03-14T06:36:02;8.90;99.90
59148;DHT22;44930;52.878;6.168;2023-03-14T06:38:28;9.40;99.90
59148;DHT22;44930;52.878;6.168;2023-03-14T06:43:20;9.60;99.90
59148;DHT22;44930;52.878;6.168;2023-03-14T06:48:12;9.40;99.90
59148;DHT22;44930;52.878;6.168;2023-03-14T06:50:37;9.40;99.90
59148;DHT22;44930;52.878;6.168;2023-03-14T06:53:03;9.20;99.90
59148;DHT22;44930;52.878;6.168;2023-03-14T06:55:28;9.10;99.90
59148;DHT22;44930;52.878;6.168;2023-03-14T06:57:54;8.90;99.90
59148;DHT22;44930;52.878;6.168;2023-03-14T07:00:19;8.50;99.90
59148;DHT22;44930;52.878;6.168;2023-03-14T07:02:45;8.00;99.90
59148;DHT22;44930;52.878;6.168;2023-03-14T07:05:11;7.80;99.90
59148;DHT22;44930;52.878;6.168;2023-03-14T07:07:36;7.60;99.90
59148;DHT22;44930;52.878;6.168;2023-03-14T07:10:02;7.50;99.90
59148;DHT22;44930;52.878;6.168;2023-03-14T07:12:27;7.30;99.90
59148;DHT22;44930;52.878;6.168;2023-03-14T07:14:53;7.20;99.90
59148;DHT22;44930;52.878;6.168;2023-03-14T07:17:18;7.20;99.90
59148;DHT22;44930;52.878;6.168;2023-03-14T07:19:44;7.10;99.90
59148;DHT22;44930;52.878;6.168;2023-03-14T07:22:09;6.90;99.90
59148;DHT22;44930;52.878;6.168;2023-03-14T07:24:35;6.80;99.90
59148;DHT22;44930;52.878;6.168;2023-03-14T07:27:01;6.60;99.90
59148;DHT22;44930;52.878;6.168;2023-03-14T07:29:26;6.50;99.90
59148;DHT22;44930;52.878;6.168;2023-03-14T07:31:52;6.30;99.90
59148;DHT22;44930;52.878;6.168;2023-03-14T07:34:17;6.20;99.90
59148;DHT22;44930;52.878;6.168;2023-03-14T07:36:44;6.10;99.90
59148;DHT22;44930;52.878;6.168;2023-03-14T07:39:10;6.00;99.90
59148;DHT22;44930;52.878;6.168;2023-03-14T07:41:35;5.80;99.90
59148;DHT22;44930;52.878;6.168;2023-03-14T07:46:27;5.60;99.90
59148;DHT22;44930;52.878;6.168;2023-03-14T07:51:18;5.60;99.90
59148;DHT22;44930;52.878;6.168;2023-03-14T07:53:44;5.60;99.90
59148;DHT22;44930;52.878;6.168;2023-03-14T07:56:10;5.60;99.90
59148;DHT22;44930;52.878;6.168;2023-03-14T07:58:36;5.60;99.90
59148;DHT22;44930;52.878;6.168;2023-03-14T08:01:02;5.40;99.90
59148;DHT22;44930;52.878;6.168;2023-03-14T08:03:28;5.60;99.90
59148;DHT22;44930;52.878;6.168;2023-03-14T08:05:53;5.70;99.90
59148;DHT22;44930;52.878;6.168;2023-03-14T08:08:19;5.60;99.90
59148;DHT22;44930;52.878;6.168;2023-03-14T08:10:45;5.70;99.90
59148;DHT22;44930;52.878;6.168;2023-03-14T08:13:12;5.60;99.90
59148;DHT22;44930;52.878;6.168;2023-03-14T08:18:04;5.50;99.90
59148;DHT22;44930;52.878;6.168;2023-03-14T08:20:30;5.60;99.90
59148;DHT22;44930;52.878;6.168;2023-03-14T08:22:57;6.00;99.90
59148;DHT22;44930;52.878;6.168;2023-03-14T08:25:23;5.80;99.90
59148;DHT22;44930;52.878;6.168;2023-03-14T08:27:49;5.70;99.90
59148;DHT22;44930;52.878;6.168;2023-03-14T08:30:16;5.60;99.90
59148;DHT22;44930;52.878;6.168;2023-03-14T08:32:42;6.00;99.90
59148;DHT22;44930;52.878;6.168;2023-03-14T08:35:09;5.90;99.90
59148;DHT22;44930;52.878;6.168;2023-03-14T08:37:35;6.20;99.90
59148;DHT22;44930;52.878;6.168;2023-03-14T08:40:02;6.00;99.90
59148;DHT22;44930;52.878;6.168;2023-03-14T08:44:58;6.10;99.90
59148;DHT22;44930;52.878;6.168;2023-03-14T08:47:24;6.00;99.90
59148;DHT22;44930;52.878;6.168;2023-03-14T08:49:50;6.10;99.90
59148;DHT22;44930;52.878;6.168;2023-03-14T08:52:15;6.20;99.90
59148;DHT22;44930;52.878;6.168;2023-03-14T08:54:45;6.20;99.90
59148;DHT22;44930;52.878;6.168;2023-03-14T08:57:10;6.30;99.90
59148;DHT22;44930;52.878;6.168;2023-03-14T08:59:36;6.40;99.90
59148;DHT22;44930;52.878;6.168;2023-03-14T09:02:02;6.30;99.90
59148;DHT22;44930;52.878;6.168;2023-03-14T09:04:29;6.40;99.90
59148;DHT22;44930;52.878;6.168;2023-03-14T09:06:55;6.40;99.90
59148;DHT22;44930;52.878;6.168;2023-03-14T09:09:23;6.40;99.90
59148;DHT22;44930;52.878;6.168;2023-03-14T09:11:49;6.80;99.90
59148;DHT22;44930;52.878;6.168;2023-03-14T09:14:14;6.80;99.90
59148;DHT22;44930;52.878;6.168;2023-03-14T09:16:40;7.10;99.90
59148;DHT22;44930;52.878;6.168;2023-03-14T09:19:06;7.00;99.90
59148;DHT22;44930;52.878;6.168;2023-03-14T09:21:31;7.00;99.90
59148;DHT22;44930;52.878;6.168;2023-03-14T09:23:57;7.10;99.90
59148;DHT22;44930;52.878;6.168;2023-03-14T09:26:22;6.80;99.90
59148;DHT22;44930;52.878;6.168;2023-03-14T09:28:48;6.90;99.90
59148;DHT22;44930;52.878;6.168;2023-03-14T09:31:14;7.00;99.90
59148;DHT22;44930;52.878;6.168;2023-03-14T09:33:40;6.90;99.90
59148;DHT22;44930;52.878;6.168;2023-03-14T09:36:06;6.90;99.90
59148;DHT22;44930;52.878;6.168;2023-03-14T09:41:00;6.80;99.90
59148;DHT22;44930;52.878;6.168;2023-03-14T09:43:29;6.60;99.90
59148;DHT22;44930;52.878;6.168;2023-03-14T09:48:27;6.80;99.90
59148;DHT22;44930;52.878;6.168;2023-03-14T09:50:57;6.50;99.90
59148;DHT22;44930;52.878;6.168;2023-03-14T09:53:26;6.50;99.90
59148;DHT22;44930;52.878;6.168;2023-03-14T09:55:53;6.60;99.90
59148;DHT22;44930;52.878;6.168;2023-03-14T09:58:22;6.80;99.90
59148;DHT22;44930;52.878;6.168;2023-03-14T10:00:50;7.00;99.90
59148;DHT22;44930;52.878;6.168;2023-03-14T10:03:27;6.80;99.90
59148;DHT22;44930;52.878;6.168;2023-03-14T10:05:54;7.00;99.90
59148;DHT22;44930;52.878;6.168;2023-03-14T10:08:21;7.10;99.90
59148;DHT22;44930;52.878;6.168;2023-03-14T10:10:47;6.60;99.90
59148;DHT22;44930;52.878;6.168;2023-03-14T10:15:59;7.30;99.90
59148;DHT22;44930;52.878;6.168;2023-03-14T10:18:27;7.00;99.90
59148;DHT22;44930;52.878;6.168;2023-03-14T10:21:06;7.00;99.90
59148;DHT22;44930;52.878;6.168;2023-03-14T10:26:05;7.10;99.90
59148;DHT22;44930;52.878;6.168;2023-03-14T10:28:48;6.70;99.90
59148;DHT22;44930;52.878;6.168;2023-03-14T10:31:16;7.50;99.90
59148;DHT22;44930;52.878;6.168;2023-03-14T10:33:58;7.70;99.90
59148;DHT22;44930;52.878;6.168;2023-03-14T10:36:28;7.40;99.90
59148;DHT22;44930;52.878;6.168;2023-03-14T10:39:44;7.50;99.90
59148;DHT22;44930;52.878;6.168;2023-03-14T10:44:21;7.50;99.90
59148;DHT22;44930;52.878;6.168;2023-03-14T10:46:57;7.60;99.90
59148;DHT22;44930;52.878;6.168;2023-03-14T10:49:36;7.50;99.90
59148;DHT22;44930;52.878;6.168;2023-03-14T10:52:17;7.60;99.90
59148;DHT22;44930;52.878;6.168;2023-03-14T10:54:47;7.50;99.90
59148;DHT22;44930;52.878;6.168;2023-03-14T10:57:14;7.40;99.90
59148;DHT22;44930;52.878;6.168;2023-03-14T10:59:41;7.70;99.90
59148;DHT22;44930;52.878;6.168;2023-03-14T11:05:11;7.60;99.90
59148;DHT22;44930;52.878;6.168;2023-03-14T11:07:42;7.50;99.90
59148;DHT22;44930;52.878;6.168;2023-03-14T11:10:19;7.60;99.90
59148;DHT22;44930;52.878;6.168;2023-03-14T11:15:35;8.00;99.90
59148;DHT22;44930;52.878;6.168;2023-03-14T11:26:48;8.00;99.90
59148;DHT22;44930;52.878;6.168;2023-03-14T11:29:22;7.90;99.90
59148;DHT22;44930;52.878;6.168;2023-03-14T11:31:55;8.40;99.90
59148;DHT22;44930;52.878;6.168;2023-03-14T11:34:29;8.10;99.90
59148;DHT22;44930;52.878;6.168;2023-03-14T11:37:01;7.90;99.90
59148;DHT22;44930;52.878;6.168;2023-03-14T11:39:41;7.50;99.90
59148;DHT22;44930;52.878;6.168;2023-03-14T11:42:15;7.70;99.90
59148;DHT22;44930;52.878;6.168;2023-03-14T11:44:45;8.00;99.90
59148;DHT22;44930;52.878;6.168;2023-03-14T11:47:34;7.80;99.90
59148;DHT22;44930;52.878;6.168;2023-03-14T11:50:16;8.10;99.90
59148;DHT22;44930;52.878;6.168;2023-03-14T11:53:01;8.00;99.90
59148;DHT22;44930;52.878;6.168;2023-03-14T12:00:25;8.20;99.90
59148;DHT22;44930;52.878;6.168;2023-03-14T12:08:43;8.00;99.90
59148;DHT22;44930;52.878;6.168;2023-03-14T12:13:53;8.30;99.90
59148;DHT22;44930;52.878;6.168;2023-03-14T12:16:38;8.50;99.90
59148;DHT22;44930;52.878;6.168;2023-03-14T12:21:52;8.50;99.90
59148;DHT22;44930;52.878;6.168;2023-03-14T12:26:55;9.10;99.90
59148;DHT22;44930;52.878;6.168;2023-03-14T12:29:21;8.80;99.90
59148;DHT22;44930;52.878;6.168;2023-03-14T12:31:48;8.90;99.90
59148;DHT22;44930;52.878;6.168;2023-03-14T12:42:14;8.70;99.90
59148;DHT22;44930;52.878;6.168;2023-03-14T12:44:43;8.30;99.90
59148;DHT22;44930;52.878;6.168;2023-03-14T12:50:08;8.30;99.90
59148;DHT22;44930;52.878;6.168;2023-03-14T12:52:57;8.30;99.90
59148;DHT22;44930;52.878;6.168;2023-03-14T13:01:19;8.50;99.90
59148;DHT22;44930;52.878;6.168;2023-03-14T13:06:12;8.30;99.90
59148;DHT22;44930;52.878;6.168;2023-03-14T13:11:16;7.90;99.90
59148;DHT22;44930;52.878;6.168;2023-03-14T13:13:58;8.10;99.90
59148;DHT22;44930;52.878;6.168;2023-03-14T13:16:24;8.20;99.90
59148;DHT22;44930;52.878;6.168;2023-03-14T13:19:17;8.10;99.90
59148;DHT22;44930;52.878;6.168;2023-03-14T13:21:44;8.30;99.90
59148;DHT22;44930;52.878;6.168;2023-03-14T13:24:24;8.00;99.90
59148;DHT22;44930;52.878;6.168;2023-03-14T13:26:54;8.40;99.90
59148;DHT22;44930;52.878;6.168;2023-03-14T13:29:22;8.50;99.90
59148;DHT22;44930;52.878;6.168;2023-03-14T13:31:51;8.40;99.90
59148;DHT22;44930;52.878;6.168;2023-03-14T13:34:17;7.90;99.90
59148;DHT22;44930;52.878;6.168;2023-03-14T13:36:43;8.10;99.90
59148;DHT22;44930;52.878;6.168;2023-03-14T13:41:47;8.00;99.90
59148;DHT22;44930;52.878;6.168;2023-03-14T13:44:17;8.00;99.90
59148;DHT22;44930;52.878;6.168;2023-03-14T13:46:44;8.20;99.90
59148;DHT22;44930;52.878;6.168;2023-03-14T13:49:16;8.30;99.90
59148;DHT22;44930;52.878;6.168;2023-03-14T13:51:44;8.50;99.90
59148;DHT22;44930;52.878;6.168;2023-03-14T13:54:19;8.40;99.90
59148;DHT22;44930;52.878;6.168;2023-03-14T13:56:45;8.70;99.90
59148;DHT22;44930;52.878;6.168;2023-03-14T13:59:25;8.90;99.90
59148;DHT22;44930;52.878;6.168;2023-03-14T14:01:52;9.00;99.90
59148;DHT22;44930;52.878;6.168;2023-03-14T14:04:23;8.90;99.90
59148;DHT22;44930;52.878;6.168;2023-03-14T14:06:53;8.80;99.90
59148;DHT22;44930;52.878;6.168;2023-03-14T14:09:29;8.20;99.90
59148;DHT22;44930;52.878;6.168;2023-03-14T14:12:06;8.30;99.90
59148;DHT22;44930;52.878;6.168;2023-03-14T14:14:40;8.20;99.90
59148;DHT22;44930;52.878;6.168;2023-03-14T14:17:10;8.20;99.90
59148;DHT22;44930;52.878;6.168;2023-03-14T14:19:36;8.40;99.90
59148;DHT22;44930;52.878;6.168;2023-03-14T14:22:03;8.80;99.90
59148;DHT22;44930;52.878;6.168;2023-03-14T14:24:31;8.50;99.90
59148;DHT22;44930;52.878;6.168;2023-03-14T14:27:08;8.20;99.90
59148;DHT22;44930;52.878;6.168;2023-03-14T14:29:35;8.00;99.90
59148;DHT22;44930;52.878;6.168;2023-03-14T14:35:00;7.70;99.90
59148;DHT22;44930;52.878;6.168;2023-03-14T14:37:35;7.90;99.90
59148;DHT22;44930;52.878;6.168;2023-03-14T14:40:16;7.90;99.90
59148;DHT22;44930;52.878;6.168;2023-03-14T14:45:16;8.50;99.90
59148;DHT22;44930;52.878;6.168;2023-03-14T14:48:09;8.20;99.90
59148;DHT22;44930;52.878;6.168;2023-03-14T14:50:49;8.30;99.90
59148;DHT22;44930;52.878;6.168;2023-03-14T14:53:37;8.80;99.90
59148;DHT22;44930;52.878;6.168;2023-03-14T14:56:21;8.40;99.90
59148;DHT22;44930;52.878;6.168;2023-03-14T14:58:50;8.30;99.90
59148;DHT22;44930;52.878;6.168;2023-03-14T15:01:20;8.30;99.90
59148;DHT22;44930;52.878;6.168;2023-03-14T15:03:50;7.80;99.90
59148;DHT22;44930;52.878;6.168;2023-03-14T15:06:16;7.60;99.90
59148;DHT22;44930;52.878;6.168;2023-03-14T15:08:43;7.60;99.90
59148;DHT22;44930;52.878;6.168;2023-03-14T15:11:20;7.40;99.90
59148;DHT22;44930;52.878;6.168;2023-03-14T15:13:47;7.50;99.90
59148;DHT22;44930;52.878;6.168;2023-03-14T15:16:15;7.40;99.90
59148;DHT22;44930;52.878;6.168;2023-03-14T15:18:42;7.20;99.90
59148;DHT22;44930;52.878;6.168;2023-03-14T15:23:37;7.10;99.90
59148;DHT22;44930;52.878;6.168;2023-03-14T15:26:05;7.00;99.90
59148;DHT22;44930;52.878;6.168;2023-03-14T15:28:30;7.00;99.90
59148;DHT22;44930;52.878;6.168;2023-03-14T15:30:58;7.10;99.90
59148;DHT22;44930;52.878;6.168;2023-03-14T15:33:25;6.70;99.90
59148;DHT22;44930;52.878;6.168;2023-03-14T15:35:51;7.00;99.90
59148;DHT22;44930;52.878;6.168;2023-03-14T15:38:19;6.80;99.90
59148;DHT22;44930;52.878;6.168;2023-03-14T15:40:51;7.30;99.90
59148;DHT22;44930;52.878;6.168;2023-03-14T15:43:17;7.70;99.90
59148;DHT22;44930;52.878;6.168;2023-03-14T15:48:16;7.90;99.90
59148;DHT22;44930;52.878;6.168;2023-03-14T15:50:42;7.90;99.90
59148;DHT22;44930;52.878;6.168;2023-03-14T15:53:08;7.80;99.90
59148;DHT22;44930;52.878;6.168;2023-03-14T15:55:33;7.60;99.90
59148;DHT22;44930;52.878;6.168;2023-03-14T15:57:59;7.80;99.90
59148;DHT22;44930;52.878;6.168;2023-03-14T16:00:26;7.80;99.90
59148;DHT22;44930;52.878;6.168;2023-03-14T16:02:51;7.70;99.90
59148;DHT22;44930;52.878;6.168;2023-03-14T16:05:17;7.40;99.90
59148;DHT22;44930;52.878;6.168;2023-03-14T16:07:44;7.40;99.90
59148;DHT22;44930;52.878;6.168;2023-03-14T16:12:37;7.00;99.90
59148;DHT22;44930;52.878;6.168;2023-03-14T16:15:03;6.70;99.90
59148;DHT22;44930;52.878;6.168;2023-03-14T16:17:28;6.20;99.90
59148;DHT22;44930;52.878;6.168;2023-03-14T16:19:54;6.00;99.90
59148;DHT22;44930;52.878;6.168;2023-03-14T16:22:20;5.90;99.90
59148;DHT22;44930;52.878;6.168;2023-03-14T16:24:45;6.00;99.90
59148;DHT22;44930;52.878;6.168;2023-03-14T16:27:11;5.90;99.90
59148;DHT22;44930;52.878;6.168;2023-03-14T16:29:37;6.10;99.90
59148;DHT22;44930;52.878;6.168;2023-03-14T16:32:03;6.30;99.90
59148;DHT22;44930;52.878;6.168;2023-03-14T16:34:28;6.20;99.90
59148;DHT22;44930;52.878;6.168;2023-03-14T16:39:20;6.60;99.90
59148;DHT22;44930;52.878;6.168;2023-03-14T16:41:46;6.70;99.90
59148;DHT22;44930;52.878;6.168;2023-03-14T16:44:11;6.70;99.90
59148;DHT22;44930;52.878;6.168;2023-03-14T16:49:04;6.70;99.90
59148;DHT22;44930;52.878;6.168;2023-03-14T16:51:29;6.70;99.90
59148;DHT22;44930;52.878;6.168;2023-03-14T16:53:55;6.70;99.90
59148;DHT22;44930;52.878;6.168;2023-03-14T16:56:21;6.70;99.90
59148;DHT22;44930;52.878;6.168;2023-03-14T16:58:47;6.80;99.90
59148;DHT22;44930;52.878;6.168;2023-03-14T17:01:14;6.50;99.90
59148;DHT22;44930;52.878;6.168;2023-03-14T17:03:46;6.40;99.90
59148;DHT22;44930;52.878;6.168;2023-03-14T17:06:14;6.40;99.90
59148;DHT22;44930;52.878;6.168;2023-03-14T17:08:40;6.30;99.90
59148;DHT22;44930;52.878;6.168;2023-03-14T17:11:06;6.10;99.90
59148;DHT22;44930;52.878;6.168;2023-03-14T17:13:32;6.10;99.90
59148;DHT22;44930;52.878;6.168;2023-03-14T17:18:26;5.90;99.90
59148;DHT22;44930;52.878;6.168;2023-03-14T17:20:52;6.00;99.90
59148;DHT22;44930;52.878;6.168;2023-03-14T17:23:19;5.90;99.90
59148;DHT22;44930;52.878;6.168;2023-03-14T17:25:46;5.70;99.90
59148;DHT22;44930;52.878;6.168;2023-03-14T17:28:12;5.80;99.90
59148;DHT22;44930;52.878;6.168;2023-03-14T17:30:37;5.80;99.90
59148;DHT22;44930;52.878;6.168;2023-03-14T17:33:03;6.10;99.90
59148;DHT22;44930;52.878;6.168;2023-03-14T17:35:30;5.70;99.90
59148;DHT22;44930;52.878;6.168;2023-03-14T17:37:55;5.80;99.90
59148;DHT22;44930;52.878;6.168;2023-03-14T17:40:21;5.40;99.90
59148;DHT22;44930;52.878;6.168;2023-03-14T17:42:47;5.00;99.90
59148;DHT22;44930;52.878;6.168;2023-03-14T17:45:12;4.90;99.90
59148;DHT22;44930;52.878;6.168;2023-03-14T17:47:38;4.60;99.90
59148;DHT22;44930;52.878;6.168;2023-03-14T17:50:03;4.60;99.90
59148;DHT22;44930;52.878;6.168;2023-03-14T17:54:58;4.70;99.90
59148;DHT22;44930;52.878;6.168;2023-03-14T17:57:24;4.30;99.90